createdAt,value
2023-05-19T00:04:49.880Z,11.3
2023-05-19T00:10:02.228Z,11.2
2023-05-19T00:15:14.376Z,11.2
2023-05-19T00:20:26.584Z,11.2
2023-05-19T00:25:40.549Z,11.1
2023-05-19T00:30:52.698Z,11
2023-05-19T00:36:04.920Z,10.9
2023-05-19T00:41:17.201Z,10.8
2023-05-19T00:46:29.519Z,10.7
2023-05-19T00:51:41.853Z,10.6
2023-05-19T00:56:54.123Z,10.5
2023-05-19T01:02:06.467Z,10.4
2023-05-19T01:07:18.677Z,10.4
2023-05-19T01:12:30.853Z,10.3
2023-05-19T01:17:43.151Z,10.3
2023-05-19T01:22:55.508Z,10.3
2023-05-19T01:28:08.180Z,10.3
2023-05-19T01:33:26.677Z,10.3
2023-05-19T01:38:38.834Z,10.3
2023-05-19T01:43:51.086Z,10.2
2023-05-19T01:49:03.401Z,10.2
2023-05-19T01:54:15.613Z,10.2
2023-05-19T01:59:27.887Z,10.2
2023-05-19T02:04:40.229Z,10.2
2023-05-19T02:09:52.575Z,10.1
2023-05-19T02:15:04.732Z,10.1
2023-05-19T02:20:19.696Z,10.1
2023-05-19T02:25:31.879Z,10
2023-05-19T02:30:44.037Z,10
2023-05-19T02:35:56.224Z,10
2023-05-19T02:41:08.384Z,10.1
2023-05-19T02:46:20.613Z,10.1
2023-05-19T02:51:32.869Z,10.1
2023-05-19T02:56:45.178Z,10.1
2023-05-19T03:01:57.380Z,10
2023-05-19T03:07:10.127Z,10
2023-05-19T03:12:22.389Z,10
2023-05-19T03:17:34.793Z,10
2023-05-19T03:22:47.030Z,10
2023-05-19T03:27:59.187Z,10
2023-05-19T03:33:11.544Z,9.9
2023-05-19T03:38:24.027Z,9.9
2023-05-19T03:43:36.249Z,9.9
2023-05-19T03:48:48.409Z,9.8
2023-05-19T03:54:00.788Z,9.8
2023-05-19T03:59:12.946Z,9.8
2023-05-19T04:04:25.374Z,9.7
2023-05-19T04:09:38.619Z,9.7
2023-05-19T04:14:51.207Z,9.7
2023-05-19T04:20:03.411Z,9.7
2023-05-19T04:25:15.567Z,9.6
2023-05-19T04:30:27.743Z,9.6
2023-05-19T04:35:39.898Z,9.7
2023-05-19T04:40:52.111Z,9.7
2023-05-19T04:46:04.277Z,9.8
2023-05-19T04:51:16.821Z,9.9
2023-05-19T04:56:29.056Z,10
2023-05-19T05:01:41.404Z,10.2
2023-05-19T05:06:53.639Z,10.3
2023-05-19T05:12:05.781Z,10.4
2023-05-19T05:17:17.929Z,10.5
2023-05-19T05:22:30.068Z,10.7
2023-05-19T05:27:42.217Z,10.8
2023-05-19T05:32:54.423Z,10.9
2023-05-19T05:38:06.692Z,11
2023-05-19T05:43:18.933Z,11
2023-05-19T05:48:31.087Z,11.4
2023-05-19T05:53:43.274Z,11.9
2023-05-19T05:58:55.430Z,12.4
2023-05-19T06:04:07.663Z,12.9
2023-05-19T06:09:22.013Z,13.3
2023-05-19T06:14:34.374Z,13.6
2023-05-19T06:19:46.544Z,14
2023-05-19T06:25:00.430Z,14.3
2023-05-19T06:30:12.573Z,14.2
2023-05-19T06:35:24.854Z,14.3
2023-05-19T06:40:37.004Z,14.4
2023-05-19T06:45:49.182Z,14.5
2023-05-19T06:51:01.402Z,14.7
2023-05-19T06:56:13.562Z,14.8
2023-05-19T07:01:25.844Z,15.1
2023-05-19T07:06:38.102Z,15.2
2023-05-19T07:11:54.754Z,15.3
2023-05-19T07:17:06.929Z,15.1
2023-05-19T07:22:19.187Z,14.7
2023-05-19T07:27:31.331Z,14.8
2023-05-19T07:32:43.567Z,14.8
2023-05-19T07:37:56.640Z,14.9
2023-05-19T07:43:10.577Z,14.7
2023-05-19T07:48:22.716Z,14.8
2023-05-19T07:53:37.613Z,14.6
2023-05-19T07:58:49.796Z,14.5
2023-05-19T08:04:02.221Z,14.4
2023-05-19T08:09:14.549Z,14.4
2023-05-19T08:14:26.706Z,14.7
2023-05-19T08:19:38.864Z,14.4
2023-05-19T08:24:51.023Z,14.4
2023-05-19T08:30:03.179Z,14.3
2023-05-19T08:35:15.459Z,14.4
2023-05-19T08:40:27.627Z,14.3
2023-05-19T08:45:39.766Z,14.3
2023-05-19T08:50:51.925Z,14.6
2023-05-19T08:56:04.326Z,14.8
2023-05-19T09:01:18.238Z,14.7
2023-05-19T09:06:30.810Z,14.7
2023-05-19T09:11:43.024Z,14.8
2023-05-19T09:16:55.318Z,15
2023-05-19T09:22:07.493Z,15
2023-05-19T09:27:19.667Z,14.9
2023-05-19T09:32:31.883Z,14.9
2023-05-19T09:37:44.075Z,15
2023-05-19T09:42:56.236Z,15
2023-05-19T09:48:08.405Z,15
2023-05-19T09:53:20.667Z,14.7
2023-05-19T09:58:32.845Z,14.7
2023-05-19T10:03:45.093Z,14.7
2023-05-19T10:08:57.252Z,14.5
2023-05-19T10:14:09.410Z,14.5
2023-05-19T10:19:21.738Z,14.5
2023-05-19T10:24:34.025Z,14.4
2023-05-19T10:29:46.200Z,14.5
2023-05-19T10:34:58.400Z,14.3
2023-05-19T10:40:10.567Z,14.4
2023-05-19T10:45:23.676Z,14.3
2023-05-19T10:50:35.955Z,14.2
2023-05-19T10:55:48.115Z,14.3
2023-05-19T11:01:00.326Z,14.3
2023-05-19T11:06:14.402Z,14.4
2023-05-19T11:11:29.052Z,14.4
2023-05-19T11:16:41.695Z,14.5
2023-05-19T11:21:54.221Z,14.5
2023-05-19T11:27:06.777Z,14.4
2023-05-19T11:32:19.044Z,14.4
2023-05-19T11:37:33.288Z,14.4
2023-05-19T11:42:45.468Z,14.5
2023-05-19T11:48:02.496Z,14.5
2023-05-19T11:53:18.544Z,14.6
2023-05-19T11:58:30.703Z,14.7
2023-05-19T12:03:42.918Z,14.7
2023-05-19T12:08:58.364Z,14.6
2023-05-19T12:14:11.303Z,14.7
2023-05-19T12:19:31.879Z,14.7
2023-05-19T12:24:47.311Z,14.8
2023-05-19T12:29:59.854Z,14.9
2023-05-19T12:35:12.463Z,14.7
2023-05-19T12:40:24.623Z,14.8
2023-05-19T12:45:36.867Z,14.6
2023-05-19T12:50:49.331Z,14.6
2023-05-19T12:56:01.508Z,14.4
2023-05-19T13:01:13.846Z,14.3
2023-05-19T13:06:26.177Z,14.3
2023-05-19T13:11:38.407Z,14.3
2023-05-19T13:16:50.705Z,14.4
2023-05-19T13:22:02.964Z,14.4
2023-05-19T13:27:15.116Z,14.5
2023-05-19T13:32:29.437Z,14.7
2023-05-19T13:37:43.872Z,14.8
2023-05-19T13:42:56.124Z,14.9
2023-05-19T13:48:08.302Z,15
2023-05-19T13:53:20.473Z,15.1
2023-05-19T14:03:53.175Z,15.1
2023-05-19T14:09:05.505Z,14.9
2023-05-19T14:14:17.653Z,14.9
2023-05-19T14:19:29.894Z,14.8
2023-05-19T14:24:42.081Z,14.8
2023-05-19T14:29:54.273Z,14.8
2023-05-19T14:35:08.315Z,14.8
2023-05-19T14:40:20.508Z,15
2023-05-19T14:45:32.673Z,15
2023-05-19T14:50:44.912Z,15.2
2023-05-19T14:55:57.192Z,15.1
2023-05-19T15:01:09.399Z,15.1
2023-05-19T15:06:22.071Z,15.2
2023-05-19T15:11:34.385Z,15.1
2023-05-19T15:16:46.634Z,15.1
2023-05-19T15:21:58.828Z,15
2023-05-19T15:27:11.015Z,14.9
2023-05-19T15:32:23.647Z,14.8
2023-05-19T15:37:35.787Z,14.7
2023-05-19T15:42:47.939Z,14.7
2023-05-19T15:48:00.156Z,14.6
2023-05-19T15:53:12.418Z,14.7
2023-05-19T15:58:25.144Z,14.7
2023-05-19T16:03:37.447Z,14.7
2023-05-19T16:08:50.529Z,14.7
2023-05-19T16:14:02.769Z,14.7
2023-05-19T16:19:15.089Z,14.7
2023-05-19T16:24:29.865Z,14.8
2023-05-19T16:29:42.592Z,14.9
2023-05-19T16:34:55.250Z,15
2023-05-19T16:40:09.021Z,15
2023-05-19T16:45:21.540Z,15.1
2023-05-19T16:50:33.892Z,15.1
2023-05-19T16:55:46.469Z,15.1
2023-05-19T17:00:58.672Z,15.1
2023-05-19T17:06:10.856Z,15.1
2023-05-19T17:11:23.113Z,15.1
2023-05-19T17:16:35.299Z,15.2
2023-05-19T17:21:51.979Z,15.2
2023-05-19T17:27:04.125Z,15.1
2023-05-19T17:32:16.304Z,15.1
2023-05-19T17:37:28.530Z,15
2023-05-19T17:42:40.683Z,15
2023-05-19T17:47:52.886Z,15
2023-05-19T17:53:05.100Z,15
2023-05-19T17:58:17.258Z,14.9
2023-05-19T18:03:29.518Z,14.8
2023-05-19T18:08:41.972Z,14.8
2023-05-19T18:13:54.124Z,14.7
2023-05-19T18:19:06.343Z,14.7
2023-05-19T18:24:18.702Z,14.6
2023-05-19T18:29:31.354Z,14.5
2023-05-19T18:34:43.495Z,14.3
2023-05-19T18:39:55.710Z,14.1
2023-05-19T18:45:07.905Z,13.9
2023-05-19T18:50:20.042Z,13.7
2023-05-19T18:55:32.318Z,13.4
2023-05-19T19:00:46.868Z,13.1
2023-05-19T19:06:02.120Z,12.9
2023-05-19T19:11:16.539Z,12.6
2023-05-19T19:16:28.781Z,12.3
2023-05-19T19:21:40.974Z,12
2023-05-19T19:26:53.134Z,11.7
2023-05-19T19:32:05.391Z,11.4
2023-05-19T19:37:17.660Z,11.2
2023-05-19T19:42:29.825Z,11
2023-05-19T19:47:43.232Z,10.7
2023-05-19T19:52:55.445Z,10.5
2023-05-19T19:58:07.681Z,10.4
2023-05-19T20:03:20.494Z,10.2
2023-05-19T20:08:32.809Z,10.1
2023-05-19T20:13:45.401Z,10
2023-05-19T20:18:57.561Z,9.9
2023-05-19T20:24:09.892Z,9.9
2023-05-19T20:29:23.078Z,9.9
2023-05-19T20:34:35.575Z,9.9
2023-05-19T20:39:48.081Z,10
2023-05-19T20:45:00.365Z,10.1
2023-05-19T20:50:12.521Z,10.2
2023-05-19T20:55:24.869Z,10.2
2023-05-19T21:00:37.303Z,10.3
2023-05-19T21:05:49.841Z,10.3
2023-05-19T21:11:02.107Z,10.3
2023-05-19T21:16:14.800Z,10.3
2023-05-19T21:21:27.082Z,10.4
2023-05-19T21:26:39.391Z,10.4
2023-05-19T21:31:51.544Z,10.4
2023-05-19T21:37:03.756Z,10.4
2023-05-19T21:42:15.924Z,10.4
2023-05-19T21:47:28.878Z,10.4
2023-05-19T21:52:41.311Z,10.3
2023-05-19T21:57:54.044Z,10.3
2023-05-19T22:03:06.337Z,10.3
2023-05-19T22:08:18.611Z,10.2
2023-05-19T22:13:30.760Z,10.2
2023-05-19T22:18:43.086Z,10.1
2023-05-19T22:23:55.332Z,10
2023-05-19T22:29:08.166Z,9.9
2023-05-19T22:34:20.508Z,9.8
2023-05-19T22:39:32.755Z,9.7
2023-05-19T22:44:45.094Z,9.6
2023-05-19T22:49:57.420Z,9.6
2023-05-19T22:55:09.698Z,9.6
2023-05-19T23:00:22.587Z,9.5
2023-05-19T23:05:35.270Z,9.6
2023-05-19T23:10:47.952Z,9.6
2023-05-19T23:16:00.171Z,9.5
2023-05-19T23:21:12.946Z,9.5
2023-05-19T23:26:25.181Z,9.5
2023-05-19T23:31:37.468Z,9.5
2023-05-19T23:36:49.840Z,9.4
2023-05-19T23:42:02.162Z,9.4
2023-05-19T23:47:14.384Z,9.4
2023-05-19T23:52:26.729Z,9.3
2023-05-19T23:57:39.047Z,9.3
